Time;durP1;ratioP1;P1;durP2;ratioP2;P2;SDS_P1;SDS_P2;PMS_P1;PMS_P2;Temp;Humidity;BMP_temperature;BMP_pressure;BME280_temperature;BME280_humidity;BME280_pressure;Samples;Min_cycle;Max_cycle;Signal;HPM_P1;HPM_P2
2022/12/21 00:00:35;;;;;;;40.97;27.27;;;;;;;6.08;100.00;98869.06;4944184;29;20205;-82
2022/12/21 00:03:04;;;;;;;40.73;26.80;;;;;;;6.11;100.00;98871.56;4945733;29;20208;-82
2022/12/21 00:05:33;;;;;;;40.63;26.40;;;;;;;6.06;100.00;98863.88;4957031;28;20238;-82
2022/12/21 00:08:02;;;;;;;40.80;27.80;;;;;;;6.01;100.00;98866.75;4940614;28;20259;-81
2022/12/21 00:10:34;;;;;;;38.20;26.87;;;;;;;6.11;100.00;98861.88;4974330;28;20202;-81
2022/12/21 00:13:06;;;;;;;39.13;26.43;;;;;;;6.10;100.00;98849.66;4993705;28;20680;-82
2022/12/21 00:15:36;;;;;;;39.47;27.47;;;;;;;6.12;100.00;98853.06;5069067;28;20189;-81
2022/12/21 00:18:04;;;;;;;41.27;27.33;;;;;;;6.20;100.00;98850.91;5067783;28;20212;-82
2022/12/21 00:20:38;;;;;;;41.00;26.97;;;;;;;6.13;100.00;98851.28;5023843;28;20655;-81
2022/12/21 00:23:07;;;;;;;44.57;28.07;;;;;;;6.12;100.00;98839.91;5069854;28;20192;-82
2022/12/21 00:25:39;;;;;;;44.97;28.67;;;;;;;6.07;100.00;98839.28;5071667;28;20250;-82
2022/12/21 00:28:07;;;;;;;35.43;25.57;;;;;;;5.99;100.00;98847.59;5071960;28;20196;-82
2022/12/21 00:30:36;;;;;;;38.57;26.87;;;;;;;5.95;100.00;98843.41;5012713;28;20209;-82
2022/12/21 00:33:05;;;;;;;40.70;27.10;;;;;;;5.93;100.00;98842.63;5005659;28;20202;-82
2022/12/21 00:35:35;;;;;;;39.30;27.20;;;;;;;6.04;100.00;98849.97;5007501;28;20237;-82
2022/12/21 00:38:03;;;;;;;36.80;26.87;;;;;;;6.03;100.00;98848.28;4955042;29;20220;-83
2022/12/21 00:40:32;;;;;;;40.47;27.70;;;;;;;6.00;100.00;98848.44;4955576;29;20204;-82
2022/12/21 00:43:05;;;;;;;38.00;27.93;;;;;;;6.02;100.00;98846.56;4952016;29;20207;-82
2022/12/21 00:45:33;;;;;;;39.47;26.97;;;;;;;6.11;100.00;98851.38;4952926;29;20197;-81
2022/12/21 00:48:02;;;;;;;40.70;28.37;;;;;;;6.00;100.00;98844.03;4951045;29;20204;-82
2022/12/21 00:50:32;;;;;;;37.87;27.27;;;;;;;6.04;100.00;98842.09;4949107;29;20208;-82
2022/12/21 00:53:00;;;;;;;40.40;28.67;;;;;;;6.12;100.00;98834.66;4949981;29;20201;-82
2022/12/21 00:55:29;;;;;;;41.27;27.70;;;;;;;6.15;100.00;98839.75;4947450;28;20374;-81
2022/12/21 00:57:59;;;;;;;40.13;27.73;;;;;;;6.25;100.00;98826.97;5013545;28;20691;-81
2022/12/21 01:00:29;;;;;;;40.13;27.63;;;;;;;6.16;100.00;98827.47;5016920;28;20190;-82
2022/12/21 01:02:57;;;;;;;40.03;28.30;;;;;;;6.14;100.00;98832.78;5017648;28;20202;-81
2022/12/21 01:05:27;;;;;;;41.43;28.57;;;;;;;6.16;100.00;98830.09;4978765;28;20358;-82
2022/12/21 01:07:55;;;;;;;42.47;29.07;;;;;;;6.25;100.00;98832.25;5009801;28;20297;-82
2022/12/21 01:10:23;;;;;;;39.33;28.23;;;;;;;6.22;100.00;98840.31;5013126;28;20390;-82
2022/12/21 01:12:52;;;;;;;41.73;28.77;;;;;;;6.23;100.00;98829.69;5014534;28;20193;-81
2022/12/21 01:15:21;;;;;;;45.67;30.40;;;;;;;6.18;100.00;98838.78;5068775;28;20211;-81
2022/12/21 01:17:51;;;;;;;44.10;30.20;;;;;;;6.15;100.00;98834.50;5067988;28;20266;-82
2022/12/21 01:20:19;;;;;;;44.67;30.67;;;;;;;6.32;100.00;98831.84;5069530;28;20643;-82
2022/12/21 01:22:50;;;;;;;42.97;29.93;;;;;;;6.23;100.00;98836.72;5067370;28;20204;-82
2022/12/21 01:25:19;;;;;;;42.20;28.93;;;;;;;6.27;100.00;98830.38;5069784;28;20274;-82
2022/12/21 01:27:47;;;;;;;45.30;29.93;;;;;;;6.33;100.00;98832.69;5021162;28;20192;-82
2022/12/21 01:30:18;;;;;;;43.00;29.67;;;;;;;6.44;100.00;98840.88;5069250;28;20185;-82
2022/12/21 01:32:47;;;;;;;44.43;29.80;;;;;;;6.42;100.00;98839.25;5040122;28;20208;-83
2022/12/21 01:35:17;;;;;;;49.10;31.80;;;;;;;6.54;100.00;98846.50;5070564;28;20647;-82
2022/12/21 01:37:45;;;;;;;44.87;30.77;;;;;;;6.45;100.00;98839.94;5065307;28;20212;-82
2022/12/21 01:40:15;;;;;;;42.90;29.57;;;;;;;6.42;100.00;98841.91;5066586;28;20204;-82
2022/12/21 01:42:44;;;;;;;47.03;30.93;;;;;;;6.42;100.00;98834.84;5071855;28;20204;-82
2022/12/21 01:45:20;;;;;;;57.03;33.27;;;;;;;6.32;100.00;98839.75;5068679;28;20199;-82
2022/12/21 01:47:55;;;;;;;45.90;31.03;;;;;;;6.39;100.00;98842.91;5068599;28;20216;-82
2022/12/21 01:50:39;;;;;;;56.73;30.80;;;;;;;6.32;100.00;98842.38;5072919;28;20190;-82
2022/12/21 01:53:14;;;;;;;58.17;32.83;;;;;;;6.29;100.00;98844.31;5087540;28;20200;-82
2022/12/21 01:55:46;;;;;;;48.03;30.53;;;;;;;6.45;100.00;98844.34;5068179;28;20192;-81
2022/12/21 01:58:15;;;;;;;43.67;30.43;;;;;;;6.40;100.00;98844.63;5074225;28;20223;-82
2022/12/21 02:00:44;;;;;;;47.73;31.43;;;;;;;6.45;100.00;98837.31;5071782;28;20200;-82
2022/12/21 02:03:17;;;;;;;50.13;31.93;;;;;;;6.51;100.00;98851.94;5068780;28;20271;-81
2022/12/21 02:05:54;;;;;;;47.53;31.17;;;;;;;6.55;100.00;98849.06;5067983;28;20196;-81
2022/12/21 02:08:23;;;;;;;46.63;30.83;;;;;;;6.51;100.00;98844.91;5067571;28;20203;-82
2022/12/21 02:10:53;;;;;;;44.13;29.63;;;;;;;6.61;100.00;98847.88;5071963;28;20224;-82
2022/12/21 02:13:22;;;;;;;47.67;31.13;;;;;;;6.61;100.00;98842.63;5066715;28;20192;-82
2022/12/21 02:16:07;;;;;;;46.23;31.10;;;;;;;6.67;100.00;98839.69;5062467;28;20706;-82
2022/12/21 02:18:55;;;;;;;48.20;30.93;;;;;;;6.73;100.00;98831.44;5067551;28;20226;-82
2022/12/21 02:21:28;;;;;;;46.90;29.70;;;;;;;6.71;100.00;98829.84;5066209;28;20204;-82
2022/12/21 02:24:44;;;;;;;49.80;31.53;;;;;;;6.73;100.00;98823.53;5069697;28;20203;-82
2022/12/21 02:27:59;;;;;;;40.33;28.77;;;;;;;6.75;100.00;98831.34;5066646;28;20281;-82
2022/12/21 02:30:46;;;;;;;50.50;31.10;;;;;;;6.69;100.00;98832.56;5065667;28;20253;-82
2022/12/21 02:33:27;;;;;;;50.23;31.63;;;;;;;6.67;100.00;98829.16;5064515;28;20203;-82
2022/12/21 02:36:07;;;;;;;51.07;30.63;;;;;;;6.74;100.00;98827.03;5064843;28;20249;-82
2022/12/21 02:38:49;;;;;;;45.13;30.53;;;;;;;6.74;100.00;98827.88;5061891;28;20261;-82
2022/12/21 02:41:36;;;;;;;43.87;29.83;;;;;;;6.79;100.00;98832.91;5070475;28;20194;-82
2022/12/21 02:44:14;;;;;;;54.83;31.93;;;;;;;6.70;100.00;98828.97;5065394;28;20705;-82
2022/12/21 02:46:59;;;;;;;74.30;32.97;;;;;;;6.63;100.00;98832.88;5066021;28;20192;-82
2022/12/21 02:49:34;;;;;;;55.03;31.13;;;;;;;6.72;100.00;98827.13;5065006;28;20197;-82
2022/12/21 02:52:07;;;;;;;70.13;33.63;;;;;;;6.72;100.00;98829.75;5072699;28;20187;-83
2022/12/21 02:54:38;;;;;;;61.23;31.40;;;;;;;6.76;100.00;98820.78;5066280;28;20215;-82
2022/12/21 02:57:07;;;;;;;69.63;33.10;;;;;;;6.72;100.00;98829.75;5069639;28;20188;-82
2022/12/21 02:59:42;;;;;;;61.27;31.73;;;;;;;6.79;100.00;98831.13;5067061;28;20216;-82
2022/12/21 03:06:00;;;;;;;61.40;30.00;;;;;;;6.84;100.00;98828.22;5000431;28;20199;-81
2022/12/21 03:08:41;;;;;;;43.73;29.93;;;;;;;6.84;100.00;98822.97;5007373;28;20202;-82
2022/12/21 03:11:10;;;;;;;47.50;29.27;;;;;;;6.86;100.00;98819.34;5005841;28;20206;-81
2022/12/21 03:13:50;;;;;;;48.90;31.53;;;;;;;6.83;100.00;98821.25;5000144;28;20405;-82
2022/12/21 03:16:27;;;;;;;51.23;31.00;;;;;;;6.82;100.00;98827.47;5008942;28;20240;-81
2022/12/21 03:19:01;;;;;;;44.70;28.93;;;;;;;6.82;100.00;98823.06;5004329;28;20727;-82
2022/12/21 03:21:36;;;;;;;44.00;28.40;;;;;;;6.83;100.00;98816.84;5006271;28;20190;-82
2022/12/21 03:24:11;;;;;;;44.43;28.67;;;;;;;6.88;100.00;98820.09;4949178;29;20196;-82
2022/12/21 03:26:45;;;;;;;49.57;28.93;;;;;;;6.82;100.00;98823.06;4966469;28;20230;-82
2022/12/21 03:29:18;;;;;;;41.67;27.60;;;;;;;6.92;100.00;98817.28;4987423;28;20206;-82
2022/12/21 03:31:50;;;;;;;39.03;27.80;;;;;;;6.94;100.00;98811.00;4986261;28;20203;-82
2022/12/21 03:34:23;;;;;;;40.37;27.00;;;;;;;6.95;100.00;98814.47;4955749;28;20281;-82
2022/12/21 03:37:05;;;;;;;46.87;28.17;;;;;;;6.89;100.00;98815.69;4991401;28;20192;-82
2022/12/21 03:39:39;;;;;;;47.10;29.13;;;;;;;6.89;100.00;98819.16;4995802;28;20280;-82
2022/12/21 03:42:13;;;;;;;58.70;29.90;;;;;;;6.89;100.00;98816.53;5032476;28;20198;-82
2022/12/21 03:44:50;;;;;;;82.47;31.23;;;;;;;6.77;100.00;98804.03;5071335;28;20184;-82
2022/12/21 03:47:23;;;;;;;102.80;30.07;;;;;;;6.78;100.00;98808.38;5069131;28;20185;-82
2022/12/21 03:49:55;;;;;;;129.37;33.43;;;;;;;6.81;100.00;98799.44;5067857;28;20203;-82
2022/12/21 03:52:35;;;;;;;153.17;35.87;;;;;;;6.73;100.00;98805.13;5025915;28;20304;-82
2022/12/21 03:55:08;;;;;;;75.90;31.13;;;;;;;6.69;100.00;98803.59;5024340;28;20228;-82
2022/12/21 03:57:38;;;;;;;123.13;34.30;;;;;;;6.65;100.00;98804.69;5025692;28;20201;-82
2022/12/21 04:00:10;;;;;;;89.27;32.30;;;;;;;6.63;100.00;98806.56;5025690;28;20222;-82
2022/12/21 04:02:49;;;;;;;94.13;29.90;;;;;;;6.76;100.00;98809.41;5027211;28;20198;-82
2022/12/21 04:05:23;;;;;;;136.00;34.70;;;;;;;6.76;100.00;98806.75;5027800;28;20223;-83
2022/12/21 04:07:55;;;;;;;105.63;31.53;;;;;;;6.70;100.00;98807.94;5026556;28;20712;-82
2022/12/21 04:10:26;;;;;;;152.37;33.57;;;;;;;6.60;100.00;98814.63;5026327;28;20198;-82
2022/12/21 04:12:53;;;;;;;332.30;43.77;;;;;;;6.63;100.00;98803.06;5027591;28;20190;-81
2022/12/21 04:15:24;;;;;;;181.07;37.07;;;;;;;6.77;100.00;98804.03;5008041;28;20567;-82
2022/12/21 04:17:55;;;;;;;292.93;43.67;;;;;;;6.69;100.00;98805.38;5058527;28;20205;-82
2022/12/21 04:20:24;;;;;;;109.10;31.23;;;;;;;6.81;100.00;98802.09;5064380;28;20243;-82
2022/12/21 04:28:32;;;;;;;325.43;43.63;;;;;;;6.76;100.00;98799.72;5071737;28;20682;-82
2022/12/21 04:31:19;;;;;;;325.70;43.17;;;;;;;6.74;100.00;98806.81;5067810;28;20238;-83
2022/12/21 04:33:47;;;;;;;309.67;44.03;;;;;;;6.76;100.00;98801.50;5072116;28;20193;-82
2022/12/21 04:39:02;;;;;;;244.27;37.87;;;;;;;6.79;100.00;98807.44;5071590;28;20271;-82
2022/12/21 04:41:33;;;;;;;173.60;34.93;;;;;;;6.79;100.00;98814.47;5068105;28;20197;-82
2022/12/21 04:44:01;;;;;;;350.17;44.20;;;;;;;6.65;100.00;98803.84;5069258;28;20188;-82
2022/12/21 04:46:30;;;;;;;259.60;39.10;;;;;;;6.82;100.00;98804.63;5064812;28;20200;-82
2022/12/21 04:48:59;;;;;;;435.53;51.27;;;;;;;6.80;100.00;98808.28;5067798;28;20224;-82
2022/12/21 04:51:27;;;;;;;214.70;36.03;;;;;;;6.88;100.00;98801.66;5017440;28;20184;-82
2022/12/21 04:53:56;;;;;;;397.07;49.23;;;;;;;6.81;100.00;98804.72;5064313;28;20261;-82
2022/12/21 04:56:26;;;;;;;218.00;36.93;;;;;;;6.84;100.00;98802.75;5068431;28;20196;-81
2022/12/21 04:58:55;;;;;;;280.30;42.40;;;;;;;6.83;100.00;98801.06;5070026;28;20326;-82
2022/12/21 05:01:26;;;;;;;293.83;41.57;;;;;;;6.97;100.00;98799.47;5068736;28;20208;-82
2022/12/21 05:03:57;;;;;;;218.10;34.57;;;;;;;7.02;100.00;98807.94;5070212;28;20234;-81
2022/12/21 05:06:26;;;;;;;412.70;47.10;;;;;;;6.87;100.00;98797.34;5065261;28;20214;-82
2022/12/21 05:08:57;;;;;;;166.87;35.93;;;;;;;6.88;100.00;98788.50;5068584;28;20199;-82
2022/12/21 05:11:28;;;;;;;168.20;32.53;;;;;;;7.02;100.00;98797.41;5072497;28;20199;-81
2022/12/21 05:13:57;;;;;;;190.17;33.50;;;;;;;6.96;100.00;98800.41;5067498;28;20196;-82
2022/12/21 05:16:26;;;;;;;106.23;27.13;;;;;;;7.02;100.00;98803.53;5028689;28;20186;-81
2022/12/21 05:18:56;;;;;;;203.60;36.57;;;;;;;6.93;100.00;98800.56;5028306;28;20320;-81
2022/12/21 05:21:24;;;;;;;265.20;39.73;;;;;;;6.92;100.00;98799.72;5024600;28;20194;-81
2022/12/21 05:23:53;;;;;;;124.77;30.00;;;;;;;6.99;100.00;98806.34;5026851;28;20261;-81
2022/12/21 05:26:24;;;;;;;207.87;34.97;;;;;;;6.93;100.00;98801.41;5025245;28;20284;-81
2022/12/21 05:28:54;;;;;;;72.80;28.10;;;;;;;7.06;100.00;98801.59;4989392;28;20199;-82
2022/12/21 05:31:23;;;;;;;83.30;27.50;;;;;;;7.02;100.00;98798.25;4986317;28;20257;-83
2022/12/21 05:33:52;;;;;;;53.47;24.87;;;;;;;6.98;100.00;98801.16;4989681;28;20234;-82
2022/12/21 05:36:20;;;;;;;41.60;21.70;;;;;;;7.11;100.00;98803.03;5010599;28;20205;-82
2022/12/21 05:38:49;;;;;;;48.20;23.57;;;;;;;7.10;100.00;98805.75;5008661;28;20216;-82
2022/12/21 05:41:18;;;;;;;55.73;24.97;;;;;;;6.97;100.00;98805.59;5011646;28;20222;-82
2022/12/21 05:43:47;;;;;;;67.90;26.70;;;;;;;6.99;100.00;98808.13;5006979;28;20194;-82
2022/12/21 05:46:18;;;;;;;142.97;28.57;;;;;;;6.96;100.00;98805.69;5017208;28;20204;-82
2022/12/21 05:48:54;;;;;;;77.43;25.07;;;;;;;6.96;100.00;98803.88;5070468;28;20199;-82
2022/12/21 05:51:23;;;;;;;132.07;28.33;;;;;;;6.94;100.00;98803.09;5070459;28;20196;-82
2022/12/21 05:53:52;;;;;;;98.27;27.37;;;;;;;6.95;100.00;98802.19;5068403;28;20265;-82
2022/12/21 05:56:20;;;;;;;102.57;27.33;;;;;;;6.91;100.00;98805.06;5068405;28;20241;-82
2022/12/21 05:58:49;;;;;;;89.07;24.80;;;;;;;6.94;100.00;98800.47;5014634;28;20210;-81
2022/12/21 06:01:20;;;;;;;151.97;28.63;;;;;;;6.93;100.00;98803.19;5026188;28;20226;-81
2022/12/21 06:03:49;;;;;;;147.87;28.53;;;;;;;6.87;100.00;98799.97;5029348;28;20196;-81
2022/12/21 06:06:18;;;;;;;105.37;26.10;;;;;;;7.00;100.00;98796.66;5028700;28;20198;-82
2022/12/21 06:08:47;;;;;;;146.07;28.10;;;;;;;6.96;100.00;98798.63;5029287;28;20202;-82
2022/12/21 06:11:20;;;;;;;183.83;27.97;;;;;;;6.95;100.00;98789.03;5025245;28;20198;-82
2022/12/21 06:13:49;;;;;;;280.03;36.47;;;;;;;6.84;100.00;98804.53;5026404;28;20198;-81
2022/12/21 06:16:22;;;;;;;174.87;29.17;;;;;;;7.00;100.00;98804.56;5039984;28;20228;-82
2022/12/21 06:18:53;;;;;;;207.87;30.87;;;;;;;6.96;100.00;98798.63;5029094;28;20543;-82
2022/12/21 06:21:22;;;;;;;234.70;32.90;;;;;;;7.05;100.00;98799.91;5031565;28;20220;-81
2022/12/21 06:23:51;;;;;;;156.63;28.30;;;;;;;7.06;100.00;98798.97;5025278;28;20198;-81
2022/12/21 06:26:20;;;;;;;165.30;30.13;;;;;;;7.13;100.00;98792.41;5027615;28;20229;-81
2022/12/21 06:28:49;;;;;;;186.37;31.50;;;;;;;7.15;100.00;98799.31;5024401;28;20202;-81
2022/12/21 06:31:21;;;;;;;307.50;37.20;;;;;;;7.09;100.00;98804.91;5026636;28;20204;-81
2022/12/21 06:33:50;;;;;;;139.03;28.20;;;;;;;7.07;100.00;98795.41;5023328;28;20240;-82
2022/12/21 06:36:18;;;;;;;220.40;32.67;;;;;;;7.10;100.00;98796.06;5032818;28;20207;-81
2022/12/21 06:38:47;;;;;;;243.47;34.30;;;;;;;7.12;100.00;98803.88;5050421;28;20246;-81
2022/12/21 06:41:18;;;;;;;214.80;32.63;;;;;;;7.17;100.00;98805.31;5065943;28;20348;-81
2022/12/21 06:43:47;;;;;;;245.20;33.90;;;;;;;7.23;100.00;98801.47;5072064;28;21034;-82
2022/12/21 06:46:17;;;;;;;238.83;31.50;;;;;;;7.21;100.00;98805.16;5064953;28;20230;-81
2022/12/21 06:48:48;;;;;;;352.43;39.07;;;;;;;7.10;100.00;98813.66;5068448;28;20249;-81
2022/12/21 06:51:19;;;;;;;353.80;41.27;;;;;;;7.13;100.00;98810.84;5073295;28;20192;-81
2022/12/21 06:53:52;;;;;;;165.77;29.77;;;;;;;7.20;100.00;98803.44;5067772;28;20643;-81
2022/12/21 06:56:22;;;;;;;205.50;32.40;;;;;;;7.23;100.00;98816.44;5068513;28;20196;-81
2022/12/21 06:58:53;;;;;;;217.83;33.37;;;;;;;7.28;100.00;98817.91;5068888;28;20275;-81
2022/12/21 07:01:23;;;;;;;200.60;33.53;;;;;;;7.25;100.00;98817.22;5064632;28;20344;-81
2022/12/21 07:03:54;;;;;;;116.27;28.07;;;;;;;7.38;100.00;98820.84;5068582;28;20188;-81
2022/12/21 07:06:24;;;;;;;105.53;26.77;;;;;;;7.30;100.00;98817.81;5068709;28;20200;-81
2022/12/21 07:08:52;;;;;;;162.87;32.57;;;;;;;7.39;100.00;98826.03;5069896;28;20697;-82
2022/12/21 07:11:25;;;;;;;308.17;40.33;;;;;;;7.47;100.00;98821.19;5066457;28;20283;-81
2022/12/21 07:13:54;;;;;;;285.33;37.07;;;;;;;7.40;100.00;98835.63;5068718;28;20189;-81
2022/12/21 07:16:23;;;;;;;176.90;32.33;;;;;;;7.49;100.00;98828.16;5072105;28;20242;-81
2022/12/21 07:18:54;;;;;;;316.67;39.17;;;;;;;7.40;100.00;98829.53;5068567;28;20239;-81
2022/12/21 07:21:23;;;;;;;323.07;39.93;;;;;;;7.36;100.00;98835.91;5023733;28;20225;-81
2022/12/21 07:23:52;;;;;;;400.27;44.27;;;;;;;7.36;100.00;98833.28;5023171;28;20198;-82
2022/12/21 07:26:22;;;;;;;295.67;38.40;;;;;;;7.39;100.00;98841.00;5024564;28;20240;-81
2022/12/21 07:28:51;;;;;;;386.50;44.53;;;;;;;7.44;100.00;98837.19;5022029;28;20241;-82
2022/12/21 07:31:22;;;;;;;379.03;46.10;;;;;;;7.37;100.00;98846.34;5030837;28;20224;-81
2022/12/21 07:33:51;;;;;;;113.53;31.30;;;;;;;7.51;100.00;98852.63;5028080;28;20197;-81
2022/12/21 07:36:21;;;;;;;127.67;31.67;;;;;;;7.57;100.00;98845.22;5025571;28;20269;-82
2022/12/21 07:38:53;;;;;;;58.33;26.40;;;;;;;7.61;100.00;98840.63;5031734;28;20677;-81
2022/12/21 07:41:22;;;;;;;77.60;28.83;;;;;;;7.64;100.00;98836.03;5064700;28;20306;-81
2022/12/21 07:43:52;;;;;;;70.23;31.33;;;;;;;7.72;100.00;98852.28;5070705;28;20192;-81
2022/12/21 07:46:23;;;;;;;59.20;28.07;;;;;;;7.81;100.00;98847.38;5048603;28;20223;-81
2022/12/21 07:48:52;;;;;;;62.07;28.70;;;;;;;7.87;100.00;98841.78;5062086;28;20212;-81
2022/12/21 07:51:22;;;;;;;83.67;29.10;;;;;;;7.89;100.00;98845.16;5066720;28;20192;-81
2022/12/21 07:53:51;;;;;;;79.07;29.00;;;;;;;7.89;100.00;98842.53;5064157;28;20205;-81
2022/12/21 07:56:19;;;;;;;105.80;28.57;;;;;;;7.81;100.00;98850.03;5071039;28;20188;-81
2022/12/21 07:58:48;;;;;;;211.63;35.77;;;;;;;7.80;100.00;98856.25;5067183;28;20194;-81
2022/12/21 08:01:19;;;;;;;254.57;38.03;;;;;;;7.78;100.00;98845.78;5067882;28;20265;-82
2022/12/21 08:03:49;;;;;;;222.27;36.30;;;;;;;7.76;100.00;98845.03;5064099;28;20275;-82
2022/12/21 08:06:19;;;;;;;447.83;52.50;;;;;;;7.62;100.00;98851.06;5010240;28;20848;-81
2022/12/21 08:08:50;;;;;;;408.17;45.77;;;;;;;7.67;100.00;98850.84;4999460;28;20244;-81
2022/12/21 08:11:20;;;;;;;469.67;45.53;;;;;;;7.61;100.00;98861.72;5004550;28;20237;-81
2022/12/21 08:13:49;;;;;;;378.07;43.40;;;;;;;7.68;100.00;98861.28;5003886;28;20717;-81
2022/12/21 08:16:20;;;;;;;423.87;45.90;;;;;;;7.70;100.00;98861.19;5004444;28;20241;-81
2022/12/21 08:18:49;;;;;;;423.87;46.03;;;;;;;7.60;100.00;98865.28;5007714;28;20191;-81
2022/12/21 08:21:18;;;;;;;346.67;39.17;;;;;;;7.70;100.00;98871.72;5002133;28;20225;-81
2022/12/21 08:23:49;;;;;;;377.93;42.70;;;;;;;7.72;100.00;98859.31;4999915;28;20198;-81
2022/12/21 08:26:21;;;;;;;517.67;49.40;;;;;;;7.74;100.00;98857.47;5009829;28;20280;-81
2022/12/21 08:28:50;;;;;;;520.77;53.17;;;;;;;7.66;100.00;98847.34;5012559;28;20209;-81
2022/12/21 08:31:30;;;;;;;334.60;40.83;;;;;;;7.81;100.00;98857.94;5012986;28;20194;-81
2022/12/21 08:33:59;;;;;;;222.47;33.97;;;;;;;7.84;100.00;98856.00;5006920;28;20220;-81
2022/12/21 08:36:27;;;;;;;402.43;44.73;;;;;;;7.67;100.00;98851.69;5015289;28;20206;-81
2022/12/21 08:38:58;;;;;;;335.67;41.50;;;;;;;7.75;100.00;98862.63;5064058;28;20247;-81
2022/12/21 08:41:37;;;;;;;469.33;48.50;;;;;;;7.71;100.00;98871.63;5070348;28;20216;-81
2022/12/21 08:44:07;;;;;;;256.87;37.90;;;;;;;7.75;100.00;98862.63;5069130;28;20194;-81
2022/12/21 08:46:36;;;;;;;159.87;32.17;;;;;;;7.84;100.00;98853.34;5068437;28;20211;-81
2022/12/21 08:49:04;;;;;;;194.27;34.90;;;;;;;7.91;100.00;98859.09;5071525;28;20242;-81
2022/12/21 08:51:33;;;;;;;267.27;38.40;;;;;;;7.89;100.00;98867.09;5068608;28;20193;-81
2022/12/21 08:54:03;;;;;;;198.33;31.63;;;;;;;7.95;100.00;98866.75;5070815;28;20204;-81
2022/12/21 08:56:32;;;;;;;471.07;50.53;;;;;;;7.93;100.00;98876.56;5071043;28;20204;-81
2022/12/21 08:59:02;;;;;;;223.27;34.50;;;;;;;7.99;100.00;98872.69;5073364;28;20239;-81
2022/12/21 09:01:30;;;;;;;163.43;32.73;;;;;;;7.98;100.00;98868.38;5069155;28;20229;-81
2022/12/21 09:04:00;;;;;;;254.57;39.53;;;;;;;8.02;100.00;98880.44;5060297;28;20235;-81
2022/12/21 09:06:28;;;;;;;476.13;50.03;;;;;;;7.97;100.00;98878.06;5068406;28;20360;-81
2022/12/21 09:08:59;;;;;;;228.90;34.70;;;;;;;8.12;100.00;98875.50;5067649;28;20208;-81
2022/12/21 09:11:29;;;;;;;212.13;34.90;;;;;;;8.18;100.00;98878.59;5066792;28;20252;-82
2022/12/21 09:14:10;;;;;;;400.50;45.10;;;;;;;8.11;100.00;98871.16;5072901;28;20655;-82
2022/12/21 09:16:39;;;;;;;329.70;39.40;;;;;;;8.08;100.00;98868.66;5069208;28;20192;-82
2022/12/21 09:19:07;;;;;;;381.97;42.07;;;;;;;8.13;100.00;98869.28;5046122;28;20193;-82
2022/12/21 09:21:37;;;;;;;598.17;55.20;;;;;;;8.20;100.00;98863.56;5047287;28;20262;-82
2022/12/21 09:24:07;;;;;;;385.43;43.07;;;;;;;8.19;100.00;98871.53;5017423;28;20216;-81
2022/12/21 09:26:37;;;;;;;384.27;45.53;;;;;;;8.19;100.00;98868.88;5047155;28;20244;-81
2022/12/21 09:29:09;;;;;;;123.63;28.60;;;;;;;8.40;100.00;98875.59;5040703;28;20200;-80
2022/12/21 09:31:40;;;;;;;114.70;28.70;;;;;;;8.45;100.00;98877.94;5042827;28;20197;-81
2022/12/21 09:34:08;;;;;;;220.87;33.37;;;;;;;8.39;100.00;98873.88;5044828;28;20196;-81
2022/12/21 09:36:38;;;;;;;406.23;45.87;;;;;;;8.40;100.00;98882.66;5047560;28;20203;-81
2022/12/21 09:39:30;;;;;;;330.57;41.07;;;;;;;8.47;100.00;98884.81;5073059;28;20687;-81
2022/12/21 09:42:16;;;;;;;404.83;46.70;;;;;;;8.37;100.00;98885.47;5063555;28;20675;-81
2022/12/21 09:45:01;;;;;;;355.93;40.10;;;;;;;8.47;100.00;98881.31;5067091;28;20203;-81
2022/12/21 09:47:36;;;;;;;349.33;42.83;;;;;;;8.48;100.00;98889.16;5066323;28;20200;-80
2022/12/21 09:50:12;;;;;;;259.93;37.20;;;;;;;8.44;100.00;98878.88;5073695;28;20203;-81
2022/12/21 09:52:45;;;;;;;210.07;32.90;;;;;;;8.57;100.00;98883.31;5073734;28;20250;-81
2022/12/21 09:55:21;;;;;;;215.63;37.00;;;;;;;8.58;100.00;98882.38;5067143;28;20267;-81
2022/12/21 09:58:02;;;;;;;166.77;32.87;;;;;;;8.60;100.00;98888.44;5071248;28;20196;-81
2022/12/21 10:00:36;;;;;;;99.63;30.07;;;;;;;8.66;100.00;98883.72;5068002;28;20386;-80
2022/12/21 10:03:36;;;;;;;176.40;33.63;;;;;;;8.74;100.00;98882.31;5062942;28;20224;-80
2022/12/21 10:06:33;;;;;;;140.67;34.43;;;;;;;8.52;100.00;98881.91;5067484;28;20193;-81
2022/12/21 10:09:23;;;;;;;75.63;27.60;;;;;;;8.76;100.00;98887.50;5066418;28;20197;-81
2022/12/21 10:12:06;;;;;;;57.27;26.70;;;;;;;8.85;100.00;98885.13;5036119;28;20215;-81
2022/12/21 10:14:51;;;;;;;84.10;29.10;;;;;;;8.91;100.00;98875.16;5065088;28;20246;-81
2022/12/21 10:17:34;;;;;;;56.83;25.87;;;;;;;8.72;100.00;98878.91;5070288;28;20656;-82
2022/12/21 10:20:23;;;;;;;45.30;24.13;;;;;;;8.88;100.00;98890.25;5067491;28;20200;-82
2022/12/21 10:22:55;;;;;;;54.27;25.60;;;;;;;8.79;100.00;98879.41;5071995;28;20258;-82
2022/12/21 10:25:29;;;;;;;50.90;25.17;;;;;;;8.74;100.00;98881.47;5065888;28;20203;-82
2022/12/21 10:28:18;;;;;;;42.27;23.20;;;;;;;8.94;100.00;98886.38;5053151;28;20652;-82
2022/12/21 10:30:56;;;;;;;48.73;25.27;;;;;;;8.98;100.00;98887.88;5050511;28;20254;-82
2022/12/21 10:33:27;;;;;;;54.57;26.23;;;;;;;8.91;100.00;98881.28;5047673;28;20679;-82
2022/12/21 10:36:02;;;;;;;55.20;24.93;;;;;;;9.02;100.00;98883.25;5044598;28;20205;-82
2022/12/21 10:38:35;;;;;;;55.10;28.07;;;;;;;9.17;100.00;98883.16;5047221;28;20283;-82
2022/12/21 10:41:10;;;;;;;53.37;26.40;;;;;;;9.28;100.00;98886.91;5048855;28;20200;-81
2022/12/21 10:43:40;;;;;;;45.07;24.43;;;;;;;9.33;100.00;98890.09;5047114;28;20216;-82
2022/12/21 10:46:12;;;;;;;47.93;25.23;;;;;;;9.39;100.00;98890.56;5049319;28;20205;-81
2022/12/21 10:48:41;;;;;;;48.30;25.57;;;;;;;9.41;100.00;98885.19;5050348;28;20192;-82
2022/12/21 10:51:29;;;;;;;44.17;23.30;;;;;;;9.41;100.00;98901.03;5044002;28;20200;-81
2022/12/21 10:54:00;;;;;;;41.30;23.00;;;;;;;9.45;100.00;98890.16;5046635;28;20261;-81
2022/12/21 10:56:32;;;;;;;40.03;22.50;;;;;;;9.55;100.00;98889.59;5052351;28;20223;-82
2022/12/21 10:59:08;;;;;;;41.50;23.23;;;;;;;9.55;100.00;98885.13;5043911;28;20236;-81
2022/12/21 11:01:39;;;;;;;39.67;22.47;;;;;;;9.51;100.00;98874.88;5046846;28;20204;-81
2022/12/21 11:04:15;;;;;;;40.73;22.17;;;;;;;9.83;100.00;98881.56;5006123;28;20218;-80
2022/12/21 11:06:59;;;;;;;38.37;23.70;;;;;;;10.16;100.00;98861.78;5005871;28;20229;-80
2022/12/21 11:09:56;;;;;;;39.83;21.83;;;;;;;10.35;100.00;98877.31;5010141;28;20212;-81
2022/12/21 11:12:53;;;;;;;38.87;22.33;;;;;;;10.31;100.00;98871.34;5010366;28;20198;-81
2022/12/21 11:15:24;;;;;;;42.27;25.27;;;;;;;10.50;100.00;98860.34;4999976;28;20221;-81
2022/12/21 11:18:31;;;;;;;39.87;24.10;;;;;;;10.56;100.00;98871.38;5010407;28;20213;-81
2022/12/21 11:21:00;;;;;;;40.37;24.70;;;;;;;10.55;100.00;98861.75;5002299;28;20268;-81
2022/12/21 11:23:29;;;;;;;38.93;23.43;;;;;;;10.60;100.00;98859.63;5003063;28;20258;-81
2022/12/21 11:25:58;;;;;;;39.13;23.33;;;;;;;10.39;100.00;98860.25;5005192;28;20298;-81
2022/12/21 11:28:26;;;;;;;43.83;24.80;;;;;;;10.44;100.00;98856.34;5000562;28;20579;-81
2022/12/21 11:30:59;;;;;;;40.57;24.33;;;;;;;10.40;100.00;98854.84;4999053;28;20237;-79
2022/12/21 11:33:31;;;;;;;42.53;25.17;;;;;;;10.30;100.00;98856.41;5005382;28;20210;-81
2022/12/21 11:36:17;;;;;;;41.97;25.20;;;;;;;10.30;100.00;98846.66;5007698;28;20205;-81
2022/12/21 11:38:47;;;;;;;45.07;25.17;;;;;;;10.40;100.00;98833.66;5021845;28;20190;-81
2022/12/21 11:41:23;;;;;;;48.03;27.03;;;;;;;10.53;100.00;98831.88;4950432;28;20271;-80
2022/12/21 11:43:53;;;;;;;44.70;26.77;;;;;;;10.50;100.00;98832.06;4921696;29;20221;-80
2022/12/21 11:46:34;;;;;;;59.03;26.10;;;;;;;10.55;100.00;98837.91;4913889;29;20206;-80
2022/12/21 11:49:52;;;;;;;49.17;26.20;;;;;;;10.54;100.00;98828.28;4912996;29;20642;-81